Time,TemperatureF,DewpointF,PressureIn,WindDirection,WindDirectionDegrees,WindSpeedMPH,WindSpeedGustMPH,Humidity,HourlyPrecipIn,Conditions,Clouds,dailyrainin,SolarRadiationWatts/m^2,SoftwareType,DateUTC
2014-02-03 00:02:00,16.0,12.0,-100.00,SSE,166,3.0,6.0,83,0.00,,,0.00,0.000000,,2014-02-03 06:02:00,
2014-02-03 00:11:00,15.0,11.0,-100.00,South,172,2.0,7.0,84,0.00,,,0.00,0.000000,,2014-02-03 06:11:00,
2014-02-03 00:42:00,15.0,11.0,-100.00,South,172,2.0,7.0,84,0.00,,,0.00,0.000000,,2014-02-03 06:42:00,
2014-02-03 00:52:00,15.0,11.0,-100.00,South,172,2.0,7.0,84,0.00,,,0.00,0.000000,,2014-02-03 06:52:00,
2014-02-03 01:01:00,15.0,11.0,-100.00,South,172,2.0,7.0,84,0.00,,,0.00,0.000000,,2014-02-03 07:01:00,
2014-02-03 01:11:00,12.0,10.0,-100.00,North,-999,0.0,5.0,90,0.00,,,0.00,0.000000,,2014-02-03 07:11:00,
2014-02-03 01:42:00,12.0,10.0,-100.00,North,-999,0.0,5.0,90,0.00,,,0.00,0.000000,,2014-02-03 07:42:00,
2014-02-03 01:52:00,12.0,10.0,-100.00,North,-999,0.0,5.0,90,0.00,,,0.00,0.000000,,2014-02-03 07:52:00,
2014-02-03 02:11:00,12.0,10.0,-100.00,South,174,1.0,4.0,90,0.00,,,-99.99,0.000000,,2014-02-03 08:11:00,
2014-02-03 02:48:00,12.0,10.0,-100.00,South,174,1.0,4.0,90,0.00,,,-99.99,0.000000,,2014-02-03 08:48:00,
2014-02-03 02:57:00,12.0,10.0,-100.00,South,174,1.0,4.0,90,0.00,,,-99.99,0.000000,,2014-02-03 08:57:00,
2014-02-03 03:11:00,12.0,9.0,-100.00,SSE,163,2.0,6.0,89,0.00,,,0.00,0.000000,,2014-02-03 09:11:00,
2014-02-03 03:44:00,12.0,9.0,-100.00,SSE,163,2.0,6.0,89,0.00,,,0.00,0.000000,,2014-02-03 09:44:00,
2014-02-03 03:53:00,12.0,9.0,-100.00,SSE,163,2.0,6.0,89,0.00,,,0.00,0.000000,,2014-02-03 09:53:00,
2014-02-03 04:03:00,12.0,9.0,-100.00,SSE,163,2.0,6.0,89,0.00,,,0.00,0.000000,,2014-02-03 10:03:00,
2014-02-03 04:11:00,11.0,8.0,-100.00,NNW,348,1.0,7.0,87,0.00,,,0.00,0.000000,,2014-02-03 10:11:00,
2014-02-03 04:43:00,11.0,8.0,-100.00,NNW,348,1.0,7.0,87,0.00,,,0.00,0.000000,,2014-02-03 10:43:00,
2014-02-03 04:52:00,11.0,8.0,-100.00,NNW,348,1.0,7.0,87,0.00,,,0.00,0.000000,,2014-02-03 10:52:00,
2014-02-03 05:03:00,11.0,8.0,-100.00,NNW,348,1.0,7.0,87,0.00,,,0.00,0.000000,,2014-02-03 11:03:00,
2014-02-03 05:11:00,10.0,8.0,-100.00,South,182,1.0,5.0,91,0.00,,,0.00,0.000000,,2014-02-03 11:11:00,
2014-02-03 05:43:00,10.0,8.0,-100.00,South,182,1.0,5.0,91,0.00,,,0.00,0.000000,,2014-02-03 11:43:00,
2014-02-03 05:52:00,10.0,8.0,-100.00,South,182,1.0,5.0,91,0.00,,,0.00,0.000000,,2014-02-03 11:52:00,
2014-02-03 06:02:00,10.0,8.0,-100.00,South,182,1.0,5.0,91,0.00,,,0.00,0.000000,,2014-02-03 12:02:00,
2014-02-03 06:11:00,4.0,3.0,-100.00,North,7,2.0,4.0,94,0.00,,,0.00,0.000000,,2014-02-03 12:11:00,
2014-02-03 06:42:00,4.0,3.0,-100.00,North,7,2.0,4.0,94,0.00,,,0.00,0.000000,,2014-02-03 12:42:00,
2014-02-03 06:52:00,4.0,3.0,-100.00,North,7,2.0,4.0,94,0.00,,,0.00,0.000000,,2014-02-03 12:52:00,
2014-02-03 07:01:00,4.0,3.0,-100.00,North,7,2.0,4.0,94,0.00,,,0.00,0.000000,,2014-02-03 13:01:00,
2014-02-03 07:11:00,4.0,3.0,-100.00,North,-999,0.0,4.0,96,0.00,,,0.00,0.000000,,2014-02-03 13:11:00,
2014-02-03 07:42:00,4.0,3.0,-100.00,North,-999,0.0,4.0,96,0.00,,,0.00,0.000000,,2014-02-03 13:42:00,
2014-02-03 07:52:00,4.0,3.0,-100.00,North,-999,0.0,4.0,96,0.00,,,0.00,0.000000,,2014-02-03 13:52:00,
2014-02-03 08:01:00,4.0,3.0,-100.00,North,-999,0.0,4.0,96,0.00,,,0.00,0.000000,,2014-02-03 14:01:00,
2014-02-03 08:11:00,5.0,4.0,-100.00,North,-999,0.0,3.0,96,0.00,,,0.00,11.000000,,2014-02-03 14:11:00,
2014-02-03 08:42:00,5.0,4.0,-100.00,North,-999,0.0,3.0,96,0.00,,,0.00,11.000000,,2014-02-03 14:42:00,
2014-02-03 08:52:00,5.0,4.0,-100.00,North,-999,0.0,3.0,96,0.00,,,0.00,11.000000,,2014-02-03 14:52:00,
2014-02-03 09:01:00,5.0,4.0,-100.00,North,-999,0.0,3.0,96,0.00,,,0.00,11.000000,,2014-02-03 15:01:00,
2014-02-03 09:11:00,12.0,10.0,-100.00,North,-999,0.0,3.0,90,0.00,,,0.00,77.000000,,2014-02-03 15:11:00,
2014-02-03 09:43:00,12.0,10.0,-100.00,North,-999,0.0,3.0,90,0.00,,,0.00,77.000000,,2014-02-03 15:43:00,
2014-02-03 09:54:00,12.0,10.0,-100.00,North,-999,0.0,3.0,90,0.00,,,0.00,77.000000,,2014-02-03 15:54:00,
2014-02-03 10:03:00,12.0,10.0,-100.00,North,-999,0.0,3.0,90,0.00,,,0.00,77.000000,,2014-02-03 16:03:00,
2014-02-03 10:11:00,15.0,11.0,-100.00,South,187,4.0,6.0,82,0.00,,,0.00,186.000000,,2014-02-03 16:11:00,
2014-02-03 10:43:00,15.0,11.0,-100.00,South,187,4.0,6.0,82,0.00,,,0.00,186.000000,,2014-02-03 16:43:00,
2014-02-03 10:53:00,15.0,11.0,-100.00,South,187,4.0,6.0,82,0.00,,,0.00,186.000000,,2014-02-03 16:53:00,
2014-02-03 11:02:00,15.0,11.0,-100.00,South,187,4.0,6.0,82,0.00,,,0.00,186.000000,,2014-02-03 17:02:00,
2014-02-03 11:11:00,23.0,14.0,-100.00,WSW,239,3.0,6.0,67,0.00,,,0.00,358.000000,,2014-02-03 17:11:00,
2014-02-03 11:42:00,23.0,14.0,-100.00,WSW,239,3.0,6.0,67,0.00,,,0.00,358.000000,,2014-02-03 17:42:00,
2014-02-03 11:53:00,23.0,14.0,-100.00,WSW,239,3.0,6.0,67,0.00,,,0.00,358.000000,,2014-02-03 17:53:00,
2014-02-03 12:02:00,23.0,14.0,-100.00,WSW,239,3.0,6.0,67,0.00,,,0.00,358.000000,,2014-02-03 18:02:00,
2014-02-03 12:11:00,26.0,16.0,-100.00,SW,236,3.0,6.0,64,0.00,,,0.00,354.000000,,2014-02-03 18:11:00,
2014-02-03 12:43:00,26.0,16.0,-100.00,SW,236,3.0,6.0,64,0.00,,,0.00,354.000000,,2014-02-03 18:43:00,
2014-02-03 12:52:00,26.0,16.0,-100.00,SW,236,3.0,6.0,64,0.00,,,0.00,354.000000,,2014-02-03 18:52:00,
2014-02-03 13:02:00,26.0,16.0,-100.00,SW,236,3.0,6.0,64,0.00,,,0.00,354.000000,,2014-02-03 19:02:00,
2014-02-03 13:11:00,28.0,16.0,-100.00,ENE,58,3.0,8.0,61,0.00,,,0.00,339.000000,,2014-02-03 19:11:00,
2014-02-03 13:42:00,28.0,16.0,-100.00,ENE,58,3.0,8.0,61,0.00,,,0.00,339.000000,,2014-02-03 19:42:00,
2014-02-03 13:52:00,28.0,16.0,-100.00,ENE,58,3.0,8.0,61,0.00,,,0.00,339.000000,,2014-02-03 19:52:00,
2014-02-03 14:01:00,28.0,16.0,-100.00,ENE,58,3.0,8.0,61,0.00,,,0.00,339.000000,,2014-02-03 20:01:00,
2014-02-03 14:11:00,27.0,16.0,-100.00,NE,49,5.0,8.0,64,0.00,,,0.00,320.000000,,2014-02-03 20:11:00,
2014-02-03 14:42:00,27.0,16.0,-100.00,NE,49,5.0,8.0,64,0.00,,,0.00,320.000000,,2014-02-03 20:42:00,
2014-02-03 14:52:00,27.0,16.0,-100.00,NE,49,5.0,8.0,64,0.00,,,0.00,320.000000,,2014-02-03 20:52:00,
2014-02-03 15:02:00,27.0,16.0,-100.00,NE,49,5.0,8.0,64,0.00,,,0.00,320.000000,,2014-02-03 21:02:00,
2014-02-03 15:11:00,25.0,17.0,-100.00,ENE,60,5.0,10.0,70,0.00,,,0.00,136.000000,,2014-02-03 21:11:00,
2014-02-03 15:43:00,25.0,17.0,-100.00,ENE,60,5.0,10.0,70,0.00,,,0.00,136.000000,,2014-02-03 21:43:00,
2014-02-03 15:54:00,25.0,17.0,-100.00,ENE,60,5.0,10.0,70,0.00,,,0.00,136.000000,,2014-02-03 21:54:00,
2014-02-03 16:03:00,25.0,17.0,-100.00,ENE,60,5.0,10.0,70,0.00,,,0.00,136.000000,,2014-02-03 22:03:00,
2014-02-03 16:11:00,24.0,17.0,-100.00,ENE,63,6.0,11.0,74,0.00,,,0.00,88.000000,,2014-02-03 22:11:00,
2014-02-03 16:43:00,24.0,17.0,-100.00,ENE,63,6.0,11.0,74,0.00,,,0.00,88.000000,,2014-02-03 22:43:00,
2014-02-03 16:53:00,24.0,17.0,-100.00,ENE,63,6.0,11.0,74,0.00,,,0.00,88.000000,,2014-02-03 22:53:00,
2014-02-03 17:02:00,24.0,17.0,-100.00,ENE,63,6.0,11.0,74,0.00,,,0.00,88.000000,,2014-02-03 23:02:00,
2014-02-03 17:11:00,22.0,16.0,-100.00,NE,50,8.0,15.0,78,0.00,,,0.00,37.000000,,2014-02-03 23:11:00,
2014-02-03 17:42:00,22.0,16.0,-100.00,NE,50,8.0,15.0,78,0.00,,,0.00,37.000000,,2014-02-03 23:42:00,
2014-02-03 17:53:00,22.0,16.0,-100.00,NE,50,8.0,15.0,78,0.00,,,0.00,37.000000,,2014-02-03 23:53:00,
2014-02-03 18:02:00,22.0,16.0,-100.00,NE,50,8.0,15.0,78,0.00,,,0.00,37.000000,,2014-02-04 00:02:00,
2014-02-03 18:11:00,21.0,16.0,-100.00,NNE,33,10.0,15.0,79,0.00,,,0.00,4.000000,,2014-02-04 00:11:00,
2014-02-03 18:42:00,21.0,16.0,-100.00,NNE,33,10.0,15.0,79,0.00,,,0.00,4.000000,,2014-02-04 00:42:00,
2014-02-03 18:52:00,21.0,16.0,-100.00,NNE,33,10.0,15.0,79,0.00,,,0.00,4.000000,,2014-02-04 00:52:00,
2014-02-03 19:02:00,21.0,16.0,-100.00,NNE,33,10.0,15.0,79,0.00,,,0.00,4.000000,,2014-02-04 01:02:00,
2014-02-03 19:11:00,20.0,16.0,-100.00,NE,52,10.0,18.0,84,0.00,,,0.00,0.000000,,2014-02-04 01:11:00,
2014-02-03 19:43:00,20.0,16.0,-100.00,NE,52,10.0,18.0,84,0.00,,,0.00,0.000000,,2014-02-04 01:43:00,
2014-02-03 19:52:00,20.0,16.0,-100.00,NE,52,10.0,18.0,84,0.00,,,0.00,0.000000,,2014-02-04 01:52:00,
2014-02-03 20:01:00,20.0,16.0,-100.00,NE,52,10.0,18.0,84,0.00,,,0.00,0.000000,,2014-02-04 02:01:00,
2014-02-03 20:11:00,20.0,16.0,-100.00,NE,46,9.0,16.0,83,0.00,,,0.00,0.000000,,2014-02-04 02:11:00,
2014-02-03 20:42:00,20.0,16.0,-100.00,NE,46,9.0,16.0,83,0.00,,,0.00,0.000000,,2014-02-04 02:42:00,
2014-02-03 20:52:00,20.0,16.0,-100.00,NE,46,9.0,16.0,83,0.00,,,0.00,0.000000,,2014-02-04 02:52:00,
2014-02-03 21:01:00,20.0,16.0,-100.00,NE,46,9.0,16.0,83,0.00,,,0.00,0.000000,,2014-02-04 03:01:00,
2014-02-03 21:11:00,19.0,15.0,-100.00,NE,49,9.0,17.0,84,0.00,,,0.00,0.000000,,2014-02-04 03:11:00,
2014-02-03 21:43:00,19.0,15.0,-100.00,NE,49,9.0,17.0,84,0.00,,,0.00,0.000000,,2014-02-04 03:43:00,
2014-02-03 21:53:00,19.0,15.0,-100.00,NE,49,9.0,17.0,84,0.00,,,0.00,0.000000,,2014-02-04 03:53:00,
2014-02-03 22:03:00,19.0,15.0,-100.00,NE,49,9.0,17.0,84,0.00,,,0.00,0.000000,,2014-02-04 04:03:00,
2014-02-03 22:11:00,19.0,15.0,-100.00,NE,44,4.0,14.0,84,0.00,,,0.00,0.000000,,2014-02-04 04:11:00,
2014-02-03 22:43:00,19.0,15.0,-100.00,NE,44,4.0,14.0,84,0.00,,,0.00,0.000000,,2014-02-04 04:43:00,
2014-02-03 22:53:00,19.0,15.0,-100.00,NE,44,4.0,14.0,84,0.00,,,0.00,0.000000,,2014-02-04 04:53:00,
2014-02-03 23:02:00,19.0,15.0,-100.00,NE,44,4.0,14.0,84,0.00,,,0.00,0.000000,,2014-02-04 05:02:00,
2014-02-03 23:11:00,18.0,15.0,-100.00,NE,35,5.0,9.0,86,0.00,,,0.00,0.000000,,2014-02-04 05:11:00,
2014-02-03 23:43:00,18.0,15.0,-100.00,NE,35,5.0,9.0,86,0.00,,,0.00,0.000000,,2014-02-04 05:43:00,
2014-02-03 23:53:00,18.0,15.0,-100.00,NE,35,5.0,9.0,86,0.00,,,0.00,0.000000,,2014-02-04 05:53:00,